Time;durP1;ratioP1;P1;durP2;ratioP2;P2;SDS_P1;SDS_P2;PMS_P1;PMS_P2;Temp;Humidity;BMP_temperature;BMP_pressure;BME280_temperature;BME280_humidity;BME280_pressure;Samples;Min_cycle;Max_cycle;Signal;HPM_P1;HPM_P2
2022/01/13 00:01:21;;;;;;;;;;;3.10;99.90;;;;;;5132720;27;19912;-70
2022/01/13 00:03:47;;;;;;;;;;;3.10;99.90;;;;;;5131224;27;19933;-71
2022/01/13 00:06:13;;;;;;;;;;;3.20;99.90;;;;;;5133796;27;19922;-72
2022/01/13 00:08:39;;;;;;;;;;;3.10;99.90;;;;;;5131718;27;19911;-71
2022/01/13 00:11:04;;;;;;;;;;;3.10;99.90;;;;;;5134177;27;20296;-70
2022/01/13 00:13:44;;;;;;;;;;;3.20;99.90;;;;;;5134941;27;19990;-71
2022/01/13 00:19:06;;;;;;;;;;;3.20;99.90;;;;;;5128837;27;20067;-71
2022/01/13 00:21:37;;;;;;;;;;;3.20;99.90;;;;;;5121038;27;20262;-71
2022/01/13 00:24:04;;;;;;;;;;;3.20;99.90;;;;;;5127177;27;19915;-71
2022/01/13 00:26:32;;;;;;;;;;;3.20;99.90;;;;;;5124685;27;19911;-71
2022/01/13 00:29:01;;;;;;;;;;;3.10;99.90;;;;;;5119210;27;19928;-70
2022/01/13 00:31:30;;;;;;;;;;;3.10;99.90;;;;;;5125607;27;19912;-70
2022/01/13 00:33:57;;;;;;;;;;;3.10;99.90;;;;;;5130627;27;19911;-70
2022/01/13 00:36:23;;;;;;;;;;;3.10;99.90;;;;;;5131858;27;19911;-71
2022/01/13 00:38:49;;;;;;;;;;;3.10;99.90;;;;;;5126005;27;19912;-70
2022/01/13 00:41:14;;;;;;;;;;;3.20;99.90;;;;;;5127397;27;19912;-71
2022/01/13 00:43:42;;;;;;;;;;;3.20;99.90;;;;;;5126955;27;20374;-71
2022/01/13 00:46:08;;;;;;;;;;;3.10;99.90;;;;;;5146601;27;19966;-70
2022/01/13 00:48:33;;;;;;;;;;;3.10;99.90;;;;;;5138052;27;19923;-71
2022/01/13 00:50:59;;;;;;;;;;;3.10;99.90;;;;;;5138417;27;20018;-70
2022/01/13 00:53:25;;;;;;;;;;;3.10;99.90;;;;;;5140166;27;20480;-70
2022/01/13 00:55:59;;;;;;;;;;;3.20;99.90;;;;;;5131790;27;19912;-71
2022/01/13 00:58:26;;;;;;;;;;;3.20;99.90;;;;;;5127901;27;19995;-70
2022/01/13 01:00:52;;;;;;;;;;;3.20;99.90;;;;;;5128043;27;19915;-71
2022/01/13 01:03:18;;;;;;;;;;;3.10;99.90;;;;;;5132385;27;19920;-70
2022/01/13 01:05:43;;;;;;;;;;;3.10;99.90;;;;;;5127525;27;19919;-70
2022/01/13 01:08:09;;;;;;;;;;;3.10;99.90;;;;;;5123949;27;19915;-71
2022/01/13 01:10:35;;;;;;;;;;;3.10;99.90;;;;;;5121644;27;20028;-70
2022/01/13 01:13:10;;;;;;;;;;;3.10;99.90;;;;;;5127288;27;20037;-70
2022/01/13 01:15:36;;;;;;;;;;;3.10;99.90;;;;;;5127075;27;19952;-70
2022/01/13 01:18:12;;;;;;;;;;;3.10;99.90;;;;;;5127288;27;19916;-71
2022/01/13 01:20:48;;;;;;;;;;;3.10;99.90;;;;;;5119582;27;19965;-71
2022/01/13 01:23:18;;;;;;;;;;;3.20;99.90;;;;;;5116702;27;20409;-71
2022/01/13 01:25:57;;;;;;;;;;;3.20;99.90;;;;;;5129459;27;20033;-70
2022/01/13 01:28:29;;;;;;;;;;;3.20;99.90;;;;;;5122587;27;19911;-70
2022/01/13 01:30:55;;;;;;;;;;;3.30;99.90;;;;;;5131805;27;19994;-71
2022/01/13 01:33:21;;;;;;;;;;;3.20;99.90;;;;;;5127641;27;20027;-70
2022/01/13 01:35:48;;;;;;;;;;;3.30;99.90;;;;;;5124910;27;20003;-71
2022/01/13 01:38:14;;;;;;;;;;;3.30;99.90;;;;;;5122450;27;19927;-70
2022/01/13 01:40:39;;;;;;;;;;;3.30;99.90;;;;;;5125846;27;19912;-71
2022/01/13 01:43:05;;;;;;;;;;;3.30;99.90;;;;;;5122411;27;19916;-70
2022/01/13 01:45:34;;;;;;;;;;;3.30;99.90;;;;;;5128572;27;19916;-70
2022/01/13 01:48:03;;;;;;;;;;;3.30;99.90;;;;;;5116826;27;20345;-69
2022/01/13 01:50:36;;;;;;;;;;;3.30;99.90;;;;;;5124531;27;20377;-70
2022/01/13 01:53:02;;;;;;;;;;;3.30;99.90;;;;;;5122943;27;19919;-70
2022/01/13 01:55:28;;;;;;;;;;;3.30;99.90;;;;;;5121122;27;19919;-70
2022/01/13 01:57:54;;;;;;;;;;;3.20;99.90;;;;;;5123143;27;19925;-71
2022/01/13 02:00:20;;;;;;;;;;;3.20;99.90;;;;;;5124257;27;20318;-70
2022/01/13 02:02:46;;;;;;;;;;;3.20;99.90;;;;;;5125641;27;19943;-70
2022/01/13 02:05:11;;;;;;;;;;;3.20;99.90;;;;;;5122330;27;19915;-70
2022/01/13 02:07:38;;;;;;;;;;;3.20;99.90;;;;;;5126220;27;19964;-70
2022/01/13 02:10:04;;;;;;;;;;;3.20;99.90;;;;;;5124586;27;19925;-71
2022/01/13 02:12:41;;;;;;;;;;;3.20;99.90;;;;;;5128547;27;19918;-71
2022/01/13 02:17:40;;;;;;;;;;;3.20;99.90;;;;;;5128149;27;19918;-70
2022/01/13 02:20:06;;;;;;;;;;;3.30;99.90;;;;;;5123581;28;20444;-70
2022/01/13 02:22:32;;;;;;;;;;;3.30;99.90;;;;;;5126767;27;19915;-71
2022/01/13 02:24:58;;;;;;;;;;;3.30;99.90;;;;;;5125521;27;19986;-70
2022/01/13 02:27:23;;;;;;;;;;;3.30;99.90;;;;;;5121108;27;19912;-71
2022/01/13 02:29:49;;;;;;;;;;;3.30;99.90;;;;;;5128452;28;19918;-71
2022/01/13 02:32:15;;;;;;;;;;;3.40;99.90;;;;;;5130281;27;20340;-71
2022/01/13 02:34:41;;;;;;;;;;;3.50;99.90;;;;;;5130257;27;19943;-71
2022/01/13 02:37:07;;;;;;;;;;;3.40;99.90;;;;;;5121800;28;20280;-71
2022/01/13 02:39:33;;;;;;;;;;;3.40;99.90;;;;;;5122836;28;19922;-70
2022/01/13 02:41:59;;;;;;;;;;;3.40;99.90;;;;;;5123174;28;19912;-70
2022/01/13 02:44:25;;;;;;;;;;;3.40;99.90;;;;;;5127475;28;19923;-70
2022/01/13 02:49:18;;;;;;;;;;;3.40;99.90;;;;;;5127165;27;20569;-70
2022/01/13 02:51:45;;;;;;;;;;;3.40;99.90;;;;;;5127218;28;19962;-71
2022/01/13 02:54:11;;;;;;;;;;;3.40;99.90;;;;;;5123841;27;19923;-71
2022/01/13 02:56:37;;;;;;;;;;;3.40;99.90;;;;;;5121019;27;19921;-71
2022/01/13 02:59:03;;;;;;;;;;;3.40;99.90;;;;;;5122998;27;20444;-70
2022/01/13 03:01:29;;;;;;;;;;;3.40;99.90;;;;;;5123974;27;20006;-70
2022/01/13 03:03:55;;;;;;;;;;;3.30;99.90;;;;;;5131685;27;20456;-71
2022/01/13 03:06:27;;;;;;;;;;;3.40;99.90;;;;;;5128957;27;19919;-71
2022/01/13 03:08:53;;;;;;;;;;;3.40;99.90;;;;;;5124593;27;19911;-70
2022/01/13 03:11:19;;;;;;;;;;;3.40;99.90;;;;;;5125286;27;19920;-72
2022/01/13 03:13:45;;;;;;;;;;;3.50;99.90;;;;;;5122304;27;19912;-71
2022/01/13 03:16:12;;;;;;;;;;;3.50;99.90;;;;;;5126699;27;19916;-71
2022/01/13 03:18:38;;;;;;;;;;;3.50;99.90;;;;;;5133112;27;19915;-71
2022/01/13 03:21:04;;;;;;;;;;;3.50;99.90;;;;;;5129767;27;19934;-69
2022/01/13 03:23:30;;;;;;;;;;;3.50;99.90;;;;;;5127912;27;19916;-69
2022/01/13 03:25:56;;;;;;;;;;;3.60;99.90;;;;;;5130959;27;19919;-70
2022/01/13 03:28:50;;;;;;;;;;;3.60;99.90;;;;;;5125994;27;19939;-70
2022/01/13 03:31:10;;;;;;;;;;;3.60;99.90;;;;;;5129886;27;19934;-70
2022/01/13 03:33:35;;;;;;;;;;;3.60;99.90;;;;;;5130341;27;19912;-69
2022/01/13 03:36:04;;;;;;;;;;;3.60;99.90;;;;;;5127555;27;19933;-71
2022/01/13 03:38:30;;;;;;;;;;;3.60;99.90;;;;;;5119595;27;19911;-70
2022/01/13 03:40:56;;;;;;;;;;;3.60;99.90;;;;;;5127405;27;20492;-72
2022/01/13 03:43:21;;;;;;;;;;;3.60;99.90;;;;;;5127672;27;19930;-70
2022/01/13 03:45:47;;;;;;;;;;;3.60;99.90;;;;;;5130703;27;19907;-71
2022/01/13 03:48:15;;;;;;;;;;;3.60;99.90;;;;;;5127590;27;19912;-70
2022/01/13 03:50:42;;;;;;;;;;;3.60;99.90;;;;;;5132278;27;19908;-69
2022/01/13 03:53:13;;;;;;;;;;;3.60;99.90;;;;;;5119503;27;19912;-70
2022/01/13 03:55:39;;;;;;;;;;;3.60;99.90;;;;;;5130423;27;19911;-70
2022/01/13 03:58:05;;;;;;;;;;;3.60;99.90;;;;;;5121793;27;19918;-71
2022/01/13 04:00:38;;;;;;;;;;;3.60;99.90;;;;;;5125345;27;20272;-71
2022/01/13 04:03:03;;;;;;;;;;;3.60;99.90;;;;;;5117582;27;19922;-71
2022/01/13 04:05:29;;;;;;;;;;;3.60;99.90;;;;;;5134133;27;20002;-71
2022/01/13 04:07:56;;;;;;;;;;;3.70;99.90;;;;;;5118508;27;21521;-71
2022/01/13 04:10:54;;;;;;;;;;;3.70;99.90;;;;;;5130939;27;19911;-71
2022/01/13 04:13:43;;;;;;;;;;;3.80;99.90;;;;;;5079308;27;19918;-69
2022/01/13 04:16:08;;;;;;;;;;;3.80;99.90;;;;;;5124516;27;19931;-70
2022/01/13 04:18:34;;;;;;;;;;;3.70;99.90;;;;;;5122037;27;20006;-71
2022/01/13 04:21:01;;;;;;;;;;;3.70;99.90;;;;;;5121649;27;20363;-70
2022/01/13 04:23:26;;;;;;;;;;;3.70;99.90;;;;;;5127133;27;20002;-70
2022/01/13 04:25:52;;;;;;;;;;;3.70;99.90;;;;;;5127919;27;19947;-70
2022/01/13 04:28:20;;;;;;;;;;;3.70;99.90;;;;;;5126428;27;19938;-70
2022/01/13 04:30:50;;;;;;;;;;;3.70;99.90;;;;;;5127981;27;19958;-70
2022/01/13 04:33:16;;;;;;;;;;;3.80;99.90;;;;;;5119716;27;19912;-70
2022/01/13 04:35:42;;;;;;;;;;;3.80;99.90;;;;;;5130907;27;19912;-70
2022/01/13 04:38:08;;;;;;;;;;;3.80;99.90;;;;;;5142877;27;20392;-69
2022/01/13 04:40:35;;;;;;;;;;;3.80;99.90;;;;;;5133354;27;19912;-70
2022/01/13 04:43:01;;;;;;;;;;;3.80;99.90;;;;;;5122829;27;19975;-70
2022/01/13 04:45:27;;;;;;;;;;;3.70;99.90;;;;;;5127769;27;20002;-70
2022/01/13 04:47:53;;;;;;;;;;;3.70;99.90;;;;;;5131789;27;19923;-71
2022/01/13 04:50:21;;;;;;;;;;;3.60;99.90;;;;;;5137819;27;19922;-70
2022/01/13 04:52:46;;;;;;;;;;;3.60;99.90;;;;;;5135913;27;20184;-69
2022/01/13 04:55:13;;;;;;;;;;;3.60;99.90;;;;;;5130160;27;19975;-71
2022/01/13 04:57:40;;;;;;;;;;;3.70;99.90;;;;;;5134002;27;20376;-70
2022/01/13 05:00:07;;;;;;;;;;;3.70;99.90;;;;;;5129784;27;19916;-71
2022/01/13 05:02:32;;;;;;;;;;;3.70;99.90;;;;;;5125700;27;19916;-71
2022/01/13 05:04:58;;;;;;;;;;;3.70;99.90;;;;;;5126402;27;20359;-71
2022/01/13 05:07:24;;;;;;;;;;;3.70;99.90;;;;;;5128651;27;19911;-71
2022/01/13 05:09:49;;;;;;;;;;;3.70;99.90;;;;;;5127663;27;20288;-71
2022/01/13 05:12:17;;;;;;;;;;;3.70;99.90;;;;;;5122974;27;19915;-70
2022/01/13 05:14:43;;;;;;;;;;;3.70;99.90;;;;;;5128901;27;20682;-71
2022/01/13 05:17:33;;;;;;;;;;;3.70;99.90;;;;;;5125005;27;20395;-70
2022/01/13 05:20:12;;;;;;;;;;;3.80;99.90;;;;;;5130615;27;19912;-71
2022/01/13 05:22:38;;;;;;;;;;;3.80;99.90;;;;;;5128198;27;19959;-70
2022/01/13 05:25:04;;;;;;;;;;;3.80;99.90;;;;;;5125627;27;20036;-71
2022/01/13 05:27:30;;;;;;;;;;;3.90;99.90;;;;;;5123278;27;19976;-71
2022/01/13 05:29:56;;;;;;;;;;;3.90;99.90;;;;;;5127049;27;20001;-71
2022/01/13 05:32:21;;;;;;;;;;;4.00;99.90;;;;;;5128389;27;19915;-70
2022/01/13 05:34:47;;;;;;;;;;;4.10;99.90;;;;;;5127280;27;19915;-70
2022/01/13 05:37:12;;;;;;;;;;;4.20;99.90;;;;;;5121566;27;19912;-72
2022/01/13 05:39:38;;;;;;;;;;;4.20;99.90;;;;;;5123553;27;19911;-70
2022/01/13 05:42:04;;;;;;;;;;;4.20;99.90;;;;;;5122291;27;19918;-73
2022/01/13 05:44:36;;;;;;;;;;;4.20;99.90;;;;;;5127906;27;20292;-72
2022/01/13 05:47:02;;;;;;;;;;;4.20;99.90;;;;;;5125847;27;20450;-71
2022/01/13 05:49:28;;;;;;;;;;;4.20;99.90;;;;;;5127229;27;19915;-72
2022/01/13 05:51:53;;;;;;;;;;;4.20;99.90;;;;;;5125183;27;19931;-71
2022/01/13 05:54:19;;;;;;;;;;;4.30;99.90;;;;;;5128870;27;20428;-71
2022/01/13 05:56:44;;;;;;;;;;;4.30;99.90;;;;;;5122882;27;19911;-70
2022/01/13 05:59:10;;;;;;;;;;;4.30;99.90;;;;;;5122140;27;20003;-72
2022/01/13 06:01:35;;;;;;;;;;;4.30;99.90;;;;;;5122908;27;19911;-71
2022/01/13 06:04:01;;;;;;;;;;;4.30;99.80;;;;;;5129870;27;19915;-71
2022/01/13 06:06:27;;;;;;;;;;;4.40;99.20;;;;;;5125998;27;20288;-70
2022/01/13 06:08:52;;;;;;;;;;;4.50;99.20;;;;;;5124410;27;19912;-68
2022/01/13 06:11:22;;;;;;;;;;;4.60;98.80;;;;;;5120002;27;19956;-72
2022/01/13 06:13:47;;;;;;;;;;;4.60;98.50;;;;;;5126775;27;19916;-70
2022/01/13 06:16:13;;;;;;;;;;;4.60;98.80;;;;;;5129589;27;19995;-73
2022/01/13 06:18:39;;;;;;;;;;;4.60;98.70;;;;;;5122987;28;19956;-73
2022/01/13 06:21:04;;;;;;;;;;;4.70;98.20;;;;;;5127307;28;19911;-71
2022/01/13 06:23:30;;;;;;;;;;;4.80;98.30;;;;;;5124683;28;20069;-71
2022/01/13 06:25:57;;;;;;;;;;;4.80;98.00;;;;;;5126210;28;19911;-72
2022/01/13 06:28:23;;;;;;;;;;;5.10;97.00;;;;;;5125534;28;19915;-71
2022/01/13 06:30:49;;;;;;;;;;;5.20;96.80;;;;;;5118466;27;19912;-71
2022/01/13 06:33:14;;;;;;;;;;;5.10;96.80;;;;;;5115759;27;20388;-71
2022/01/13 06:35:40;;;;;;;;;;;5.00;97.30;;;;;;5130043;27;19998;-71
2022/01/13 06:38:06;;;;;;;;;;;4.80;97.70;;;;;;5118825;27;19969;-71
2022/01/13 06:40:32;;;;;;;;;;;4.70;98.10;;;;;;5124919;27;20490;-71
2022/01/13 06:42:57;;;;;;;;;;;4.60;98.40;;;;;;5124925;27;19931;-72
2022/01/13 06:45:23;;;;;;;;;;;4.60;98.30;;;;;;5131115;27;19911;-70
2022/01/13 06:47:49;;;;;;;;;;;4.60;98.20;;;;;;5130872;27;19929;-71
2022/01/13 06:50:16;;;;;;;;;;;4.60;98.10;;;;;;5126266;27;20326;-70
2022/01/13 06:52:42;;;;;;;;;;;4.60;98.10;;;;;;5125327;27;19951;-70
2022/01/13 06:55:08;;;;;;;;;;;4.60;98.20;;;;;;5134112;27;19918;-71
2022/01/13 06:57:34;;;;;;;;;;;4.60;98.20;;;;;;5121309;27;19908;-72
2022/01/13 07:00:00;;;;;;;;;;;4.70;97.80;;;;;;5131895;27;19918;-71
2022/01/13 07:02:28;;;;;;;;;;;4.80;97.80;;;;;;5128213;27;20326;-71
2022/01/13 07:04:53;;;;;;;;;;;4.90;97.90;;;;;;5135337;27;19919;-70
2022/01/13 07:07:19;;;;;;;;;;;4.90;97.80;;;;;;5121791;27;20014;-70
2022/01/13 07:09:45;;;;;;;;;;;5.00;97.70;;;;;;5123930;27;19912;-70
2022/01/13 07:12:10;;;;;;;;;;;5.00;97.40;;;;;;5123708;27;19916;-71
2022/01/13 07:14:36;;;;;;;;;;;5.10;97.70;;;;;;5120161;27;19938;-70
2022/01/13 07:17:02;;;;;;;;;;;5.20;97.60;;;;;;5112293;27;19936;-70
2022/01/13 07:19:28;;;;;;;;;;;5.20;97.60;;;;;;5133298;27;19911;-71
2022/01/13 07:21:53;;;;;;;;;;;5.50;97.30;;;;;;5124479;27;19918;-71
2022/01/13 07:24:19;;;;;;;;;;;5.50;97.10;;;;;;5122292;27;20065;-70
2022/01/13 07:26:44;;;;;;;;;;;5.60;96.60;;;;;;5128508;27;19907;-70
2022/01/13 07:29:10;;;;;;;;;;;5.60;96.30;;;;;;5125560;27;19918;-72
2022/01/13 07:31:36;;;;;;;;;;;5.80;95.80;;;;;;5134093;27;20006;-70
2022/01/13 07:34:02;;;;;;;;;;;5.80;96.00;;;;;;5132158;27;19915;-70
2022/01/13 07:36:27;;;;;;;;;;;5.70;96.10;;;;;;5126303;27;19911;-71
2022/01/13 07:38:53;;;;;;;;;;;5.70;96.10;;;;;;5129874;27;19911;-71
2022/01/13 07:41:19;;;;;;;;;;;5.70;96.20;;;;;;5125104;27;19912;-71
2022/01/13 07:43:48;;;;;;;;;;;5.60;96.30;;;;;;5131629;27;19915;-70
2022/01/13 07:46:14;;;;;;;;;;;5.50;96.70;;;;;;5132674;27;19957;-71
2022/01/13 07:48:39;;;;;;;;;;;5.50;96.70;;;;;;5122728;27;19916;-70
2022/01/13 07:51:05;;;;;;;;;;;5.50;96.80;;;;;;5129910;27;19971;-70
2022/01/13 07:53:31;;;;;;;;;;;5.40;96.70;;;;;;5134203;27;19908;-70
2022/01/13 07:55:56;;;;;;;;;;;5.50;97.20;;;;;;5132721;27;20375;-71
2022/01/13 07:58:22;;;;;;;;;;;5.60;96.80;;;;;;5128256;27;19920;-71
2022/01/13 08:00:48;;;;;;;;;;;5.60;96.80;;;;;;5123239;27;20037;-70
2022/01/13 08:03:14;;;;;;;;;;;5.60;97.10;;;;;;5133031;27;20360;-71
2022/01/13 08:05:40;;;;;;;;;;;5.60;97.20;;;;;;5123704;27;19911;-71
2022/01/13 08:08:05;;;;;;;;;;;5.70;97.10;;;;;;5124330;27;19911;-72
2022/01/13 08:10:31;;;;;;;;;;;5.60;97.70;;;;;;5124471;27;20610;-73
2022/01/13 08:12:56;;;;;;;;;;;5.60;97.50;;;;;;5124694;27;19958;-72
2022/01/13 08:15:23;;;;;;;;;;;5.60;97.40;;;;;;5132601;27;19919;-71
2022/01/13 08:20:33;;;;;;;;;;;5.70;97.50;;;;;;5132094;27;19999;-71
2022/01/13 08:22:59;;;;;;;;;;;5.90;97.20;;;;;;5122210;27;19919;-71
2022/01/13 08:25:25;;;;;;;;;;;6.00;97.30;;;;;;5121743;27;19912;-69
2022/01/13 08:27:51;;;;;;;;;;;6.00;97.10;;;;;;5118054;27;20326;-69
2022/01/13 08:30:16;;;;;;;;;;;6.10;97.30;;;;;;5126728;27;19912;-69
2022/01/13 08:32:42;;;;;;;;;;;6.20;97.10;;;;;;5124832;27;21423;-69
2022/01/13 08:35:09;;;;;;;;;;;6.20;97.10;;;;;;5120946;27;20006;-70
2022/01/13 08:37:34;;;;;;;;;;;6.40;96.90;;;;;;5119770;27;19912;-69
2022/01/13 08:40:05;;;;;;;;;;;6.40;97.10;;;;;;5122112;27;19918;-69
2022/01/13 08:42:32;;;;;;;;;;;6.50;97.10;;;;;;5121772;27;19916;-69
2022/01/13 08:44:57;;;;;;;;;;;6.50;97.30;;;;;;5119439;27;19956;-69
2022/01/13 08:47:23;;;;;;;;;;;6.40;97.50;;;;;;5120200;27;19927;-69
2022/01/13 08:49:48;;;;;;;;;;;6.40;97.80;;;;;;5119494;27;19927;-68
2022/01/13 08:52:14;;;;;;;;;;;6.40;97.90;;;;;;5117685;27;20002;-68
2022/01/13 08:54:41;;;;;;;;;;;6.50;97.90;;;;;;5117153;27;20385;-70
2022/01/13 08:57:07;;;;;;;;;;;6.50;98.30;;;;;;5116531;27;19908;-68
2022/01/13 08:59:33;;;;;;;;;;;6.50;98.10;;;;;;5125200;27;19999;-69
2022/01/13 09:01:58;;;;;;;;;;;6.60;98.00;;;;;;5128229;27;19911;-68
2022/01/13 09:04:24;;;;;;;;;;;6.70;97.80;;;;;;5122797;27;19923;-71
2022/01/13 09:06:49;;;;;;;;;;;6.80;97.90;;;;;;5122838;27;19943;-67
2022/01/13 09:09:15;;;;;;;;;;;6.80;97.90;;;;;;5127243;27;19931;-70
2022/01/13 09:11:41;;;;;;;;;;;6.80;98.10;;;;;;5122271;27;19911;-68
2022/01/13 09:14:07;;;;;;;;;;;6.80;98.30;;;;;;5130208;27;19911;-70
2022/01/13 09:16:41;;;;;;;;;;;6.80;98.30;;;;;;5128835;27;20562;-69
2022/01/13 09:19:08;;;;;;;;;;;6.90;98.30;;;;;;5113156;27;19912;-68
2022/01/13 09:21:33;;;;;;;;;;;6.90;98.20;;;;;;5128922;27;19911;-70
2022/01/13 09:23:59;;;;;;;;;;;6.90;98.50;;;;;;5133295;27;19912;-68
2022/01/13 09:26:25;;;;;;;;;;;7.00;98.70;;;;;;5126501;27;19975;-70
2022/01/13 09:28:52;;;;;;;;;;;7.10;98.40;;;;;;5120386;27;20002;-69
2022/01/13 09:31:18;;;;;;;;;;;7.10;98.80;;;;;;5132059;27;19908;-69
2022/01/13 09:33:43;;;;;;;;;;;7.20;98.60;;;;;;5131860;27;19919;-69
2022/01/13 09:36:09;;;;;;;;;;;7.30;98.30;;;;;;5112245;27;20056;-68
2022/01/13 09:38:35;;;;;;;;;;;7.30;98.30;;;;;;5124923;27;20289;-69
2022/01/13 09:41:01;;;;;;;;;;;7.40;98.40;;;;;;5139347;27;19938;-69
2022/01/13 09:43:27;;;;;;;;;;;7.40;98.60;;;;;;5131802;27;19915;-68
2022/01/13 09:45:53;;;;;;;;;;;7.50;98.90;;;;;;5115314;27;19919;-68
2022/01/13 09:48:19;;;;;;;;;;;7.50;99.60;;;;;;5126085;27;19911;-67
2022/01/13 09:50:48;;;;;;;;;;;7.60;99.50;;;;;;5124745;27;19972;-68
2022/01/13 09:53:14;;;;;;;;;;;7.70;99.50;;;;;;5125091;27;19923;-67
2022/01/13 09:55:41;;;;;;;;;;;7.70;99.90;;;;;;5110734;28;19912;-66
2022/01/13 09:58:10;;;;;;;;;;;7.70;99.90;;;;;;5124676;27;20311;-68
2022/01/13 10:00:39;;;;;;;;;;;7.70;99.90;;;;;;5131487;27;19930;-67
2022/01/13 10:03:19;;;;;;;;;;;7.70;99.90;;;;;;5129036;27;19915;-69
2022/01/13 10:06:11;;;;;;;;;;;7.60;99.90;;;;;;5123383;27;20518;-66
2022/01/13 10:08:42;;;;;;;;;;;7.50;99.90;;;;;;5117410;27;20002;-68
2022/01/13 10:11:27;;;;;;;;;;;7.50;99.90;;;;;;5128098;27;20276;-66
2022/01/13 10:14:15;;;;;;;;;;;7.50;99.90;;;;;;5131876;27;20326;-66
2022/01/13 10:16:42;;;;;;;;;;;7.40;99.90;;;;;;5122060;27;20027;-67
2022/01/13 10:19:09;;;;;;;;;;;7.40;99.90;;;;;;5120431;28;20293;-69
2022/01/13 10:21:34;;;;;;;;;;;7.30;99.90;;;;;;5126689;27;20271;-66
2022/01/13 10:24:02;;;;;;;;;;;7.30;99.90;;;;;;5129959;28;19913;-68
2022/01/13 10:26:28;;;;;;;;;;;7.30;99.90;;;;;;5116650;28;20471;-67
2022/01/13 10:28:54;;;;;;;;;;;7.30;99.90;;;;;;5118780;28;19916;-68
2022/01/13 10:31:19;;;;;;;;;;;7.30;99.90;;;;;;5115632;28;19933;-68
2022/01/13 10:33:45;;;;;;;;;;;7.30;99.90;;;;;;5127912;28;20006;-66
2022/01/13 10:36:12;;;;;;;;;;;7.30;99.90;;;;;;5130178;27;20020;-68
2022/01/13 10:38:49;;;;;;;;;;;7.40;99.90;;;;;;5126752;28;19915;-66
2022/01/13 10:41:28;;;;;;;;;;;7.40;99.90;;;;;;5114215;28;20006;-67
2022/01/13 10:44:13;;;;;;;;;;;7.60;99.90;;;;;;5119186;28;19926;-69
2022/01/13 10:47:14;;;;;;;;;;;7.70;99.90;;;;;;5130437;27;19912;-69
2022/01/13 10:49:41;;;;;;;;;;;7.80;99.90;;;;;;5040833;28;19913;-67
2022/01/13 10:52:26;;;;;;;;;;;7.80;99.90;;;;;;5106068;28;19907;-70
2022/01/13 10:54:54;;;;;;;;;;;7.90;99.90;;;;;;5130897;27;19918;-68
2022/01/13 10:57:21;;;;;;;;;;;8.00;99.90;;;;;;5128213;28;19918;-68
2022/01/13 10:59:47;;;;;;;;;;;8.00;99.90;;;;;;5119141;28;20333;-67
2022/01/13 11:02:12;;;;;;;;;;;8.00;99.90;;;;;;5119821;28;19974;-68
2022/01/13 11:04:38;;;;;;;;;;;8.20;99.90;;;;;;5119982;28;19923;-67
2022/01/13 11:07:17;;;;;;;;;;;8.20;99.90;;;;;;5129383;28;19911;-70
2022/01/13 11:09:51;;;;;;;;;;;8.10;99.90;;;;;;5125562;27;20357;-70
2022/01/13 11:12:17;;;;;;;;;;;8.10;99.90;;;;;;5120893;27;19931;-67
2022/01/13 11:14:43;;;;;;;;;;;8.20;99.90;;;;;;5131732;28;19908;-66
2022/01/13 11:17:10;;;;;;;;;;;8.30;99.90;;;;;;5127798;27;20230;-69
2022/01/13 11:19:39;;;;;;;;;;;8.40;99.90;;;;;;5123809;28;19908;-68
2022/01/13 11:22:05;;;;;;;;;;;8.50;99.90;;;;;;5123652;27;19912;-68
2022/01/13 11:24:31;;;;;;;;;;;8.50;99.90;;;;;;5121505;27;19929;-70
2022/01/13 11:26:57;;;;;;;;;;;8.60;99.90;;;;;;5129087;27;19961;-68
2022/01/13 11:29:23;;;;;;;;;;;8.50;99.90;;;;;;5120390;27;19911;-68
2022/01/13 11:31:50;;;;;;;;;;;8.50;99.90;;;;;;5118932;27;19912;-67
2022/01/13 11:34:16;;;;;;;;;;;8.60;99.90;;;;;;5119821;27;20002;-68
2022/01/13 11:36:42;;;;;;;;;;;8.60;99.90;;;;;;5132757;27;19923;-76
2022/01/13 11:39:07;;;;;;;;;;;8.60;99.90;;;;;;5125549;27;20308;-66
2022/01/13 11:41:33;;;;;;;;;;;8.60;99.90;;;;;;5119978;27;19992;-67
2022/01/13 11:44:11;;;;;;;;;;;8.50;99.90;;;;;;5122255;27;19934;-67
2022/01/13 11:46:44;;;;;;;;;;;8.50;99.90;;;;;;5119187;27;19923;-67
2022/01/13 11:49:16;;;;;;;;;;;8.50;99.90;;;;;;5119461;27;20384;-67
2022/01/13 11:52:01;;;;;;;;;;;8.50;99.90;;;;;;5132786;27;19993;-69
2022/01/13 11:54:31;;;;;;;;;;;8.50;99.90;;;;;;5121608;27;19918;-67
2022/01/13 11:57:09;;;;;;;;;;;8.60;99.90;;;;;;5114963;27;19912;-68
2022/01/13 11:59:35;;;;;;;;;;;8.60;99.90;;;;;;5121554;27;20293;-69
2022/01/13 12:02:19;;;;;;;;;;;8.60;99.90;;;;;;5122233;27;19915;-70
2022/01/13 12:05:03;;;;;;;;;;;8.70;99.90;;;;;;5132513;27;19911;-67
2022/01/13 12:07:42;;;;;;;;;;;8.80;99.90;;;;;;5132897;27;20002;-68
2022/01/13 12:10:08;;;;;;;;;;;8.80;99.90;;;;;;5130204;27;20002;-70
2022/01/13 12:12:35;;;;;;;;;;;8.80;99.90;;;;;;5119927;27;19911;-69
2022/01/13 12:15:13;;;;;;;;;;;8.70;99.90;;;;;;5132602;27;19907;-68
2022/01/13 12:17:47;;;;;;;;;;;8.70;99.90;;;;;;5128529;27;19911;-69
2022/01/13 12:20:25;;;;;;;;;;;8.70;99.90;;;;;;5125878;27;19946;-68
2022/01/13 12:23:03;;;;;;;;;;;8.80;99.90;;;;;;5130876;27;19911;-70
2022/01/13 12:25:31;;;;;;;;;;;8.80;99.90;;;;;;5128367;27;19923;-69
2022/01/13 12:27:58;;;;;;;;;;;8.60;99.90;;;;;;5117626;27;19918;-69
2022/01/13 12:30:28;;;;;;;;;;;8.60;99.90;;;;;;5132822;27;19907;-68
2022/01/13 12:32:53;;;;;;;;;;;8.70;99.90;;;;;;5127089;27;19923;-70
2022/01/13 12:35:22;;;;;;;;;;;8.70;99.90;;;;;;5130596;27;19908;-69
2022/01/13 12:38:04;;;;;;;;;;;8.60;99.90;;;;;;5129776;27;19922;-71
2022/01/13 12:40:34;;;;;;;;;;;8.70;99.90;;;;;;5130199;27;19963;-68
2022/01/13 12:43:22;;;;;;;;;;;8.70;99.90;;;;;;5132963;27;20010;-70
2022/01/13 12:45:47;;;;;;;;;;;8.70;99.90;;;;;;5129714;27;20410;-69
2022/01/13 12:48:13;;;;;;;;;;;8.80;99.90;;;;;;5121036;27;19919;-69
2022/01/13 12:50:44;;;;;;;;;;;8.80;99.90;;;;;;5135701;27;19908;-68
2022/01/13 12:53:17;;;;;;;;;;;8.90;99.90;;;;;;5133719;27;19907;-69
2022/01/13 12:55:53;;;;;;;;;;;8.80;99.90;;;;;;5124410;27;19919;-68
2022/01/13 12:58:24;;;;;;;;;;;8.70;99.90;;;;;;5123030;27;19912;-70
2022/01/13 13:00:50;;;;;;;;;;;8.80;99.90;;;;;;5134531;27;19907;-69
2022/01/13 13:03:18;;;;;;;;;;;8.70;99.90;;;;;;5133659;27;19922;-68
2022/01/13 13:05:47;;;;;;;;;;;8.80;99.90;;;;;;5129549;27;20346;-67
2022/01/13 13:08:16;;;;;;;;;;;8.70;99.90;;;;;;5124545;27;19911;-70
2022/01/13 13:10:43;;;;;;;;;;;8.80;99.90;;;;;;5134928;27;20442;-68
2022/01/13 13:13:10;;;;;;;;;;;8.80;99.90;;;;;;5129790;27;19912;-69
2022/01/13 13:18:02;;;;;;;;;;;8.70;99.90;;;;;;5125278;27;19943;-68
2022/01/13 13:20:29;;;;;;;;;;;8.70;99.90;;;;;;5123762;27;19911;-69
2022/01/13 13:22:58;;;;;;;;;;;8.70;99.90;;;;;;5115399;27;20091;-68
2022/01/13 13:25:26;;;;;;;;;;;8.70;99.90;;;;;;5121927;27;19992;-69
2022/01/13 13:27:52;;;;;;;;;;;8.80;99.90;;;;;;5133759;27;19915;-68
2022/01/13 13:30:17;;;;;;;;;;;8.90;99.90;;;;;;5123644;27;19911;-70
2022/01/13 13:32:47;;;;;;;;;;;8.90;99.90;;;;;;5125303;27;20317;-71
2022/01/13 13:35:16;;;;;;;;;;;8.70;99.90;;;;;;5136419;27;19946;-69
2022/01/13 13:37:46;;;;;;;;;;;8.80;99.90;;;;;;5120978;27;20028;-69
2022/01/13 13:40:22;;;;;;;;;;;8.90;99.90;;;;;;5132303;27;19916;-72
2022/01/13 13:43:01;;;;;;;;;;;8.90;99.90;;;;;;5134366;27;19927;-71
2022/01/13 13:45:27;;;;;;;;;;;9.00;99.90;;;;;;5131435;27;19915;-70
2022/01/13 13:47:53;;;;;;;;;;;9.10;99.90;;;;;;5124484;27;19916;-69
2022/01/13 13:50:19;;;;;;;;;;;9.00;99.90;;;;;;5115979;27;20297;-69
2022/01/13 13:52:48;;;;;;;;;;;9.00;99.90;;;;;;5128507;27;19918;-69
2022/01/13 13:55:15;;;;;;;;;;;8.90;99.90;;;;;;5131912;27;19918;-70
2022/01/13 13:57:43;;;;;;;;;;;9.00;99.90;;;;;;5132495;27;20315;-70
2022/01/13 14:00:11;;;;;;;;;;;8.90;99.90;;;;;;5124628;27;20478;-69
2022/01/13 14:02:37;;;;;;;;;;;8.90;99.90;;;;;;5123904;27;19919;-69
2022/01/13 14:05:12;;;;;;;;;;;8.80;99.90;;;;;;5131262;27;20462;-69
2022/01/13 14:07:39;;;;;;;;;;;8.90;99.90;;;;;;5129098;27;19918;-68
2022/01/13 14:10:25;;;;;;;;;;;8.90;99.90;;;;;;5132591;27;19908;-70
2022/01/13 14:13:02;;;;;;;;;;;8.90;99.90;;;;;;5128627;27;20363;-70
2022/01/13 14:15:33;;;;;;;;;;;9.00;99.90;;;;;;5121716;27;19917;-68
2022/01/13 14:18:21;;;;;;;;;;;8.80;99.90;;;;;;5119098;28;20425;-70
2022/01/13 14:20:51;;;;;;;;;;;8.80;99.90;;;;;;5109599;27;19912;-69
2022/01/13 14:23:18;;;;;;;;;;;8.70;99.90;;;;;;5131266;27;19915;-68
2022/01/13 14:25:44;;;;;;;;;;;8.60;99.90;;;;;;5130681;28;19915;-68
2022/01/13 14:28:22;;;;;;;;;;;8.70;99.90;;;;;;5120759;27;19955;-69
2022/01/13 14:30:48;;;;;;;;;;;8.70;99.90;;;;;;5118098;28;20418;-67
2022/01/13 14:33:20;;;;;;;;;;;8.70;99.90;;;;;;5119146;28;19943;-69
2022/01/13 14:35:57;;;;;;;;;;;8.70;99.90;;;;;;5125361;28;19912;-70
2022/01/13 14:38:23;;;;;;;;;;;8.80;99.90;;;;;;5123802;27;19916;-69
2022/01/13 14:40:48;;;;;;;;;;;8.80;99.90;;;;;;5123339;27;19918;-67
2022/01/13 14:43:18;;;;;;;;;;;8.80;99.90;;;;;;5122438;28;19912;-68
2022/01/13 14:45:45;;;;;;;;;;;8.90;99.90;;;;;;5118091;28;19979;-70
2022/01/13 14:48:12;;;;;;;;;;;8.80;99.90;;;;;;5123428;28;20365;-70
2022/01/13 14:50:37;;;;;;;;;;;8.90;99.90;;;;;;5121037;27;19915;-70